TPOK1: Kansas River, State-Line, KS

                                SHEF ID:       TPOK1     MARAIS DES CYGNES R NR KS-MO ST
STATION TYPE:

STAGE STAGE(2) RIV-FLOW BAT-LOAD
ft ft cfs volt
Ccp-Rev Ccp-Rev Ccp-Rev Ccp-Rev
(America/Chicago)
06/28 00:00 11.49 11.49 4587 12.51
06/28 01:00 11.49 11.53 4587 12.50
06/28 02:00 11.54 11.58 4627 12.49
06/28 03:00 11.58 11.61 4659 12.48
06/28 04:00 11.61 11.61 4683 12.45
06/28 05:00 11.66 11.65 4723 12.43
06/28 06:00 11.67 11.69 4731 12.40
06/28 07:00 11.69 11.71 4747 12.40
06/28 08:00 11.72 11.71 4772 12.43
06/28 09:00 11.72 11.74 4772 12.77
06/28 10:00 11.72 11.74 4772 13.19
06/28 11:00 11.72 11.71 4772 12.99
06/28 12:00 11.71 11.68 4764 13.33
06/28 13:00 11.68 11.67 4739 13.23
06/28 14:00 11.61 11.63 4683 13.20
06/28 15:00 11.60 11.56 4675 13.01
06/28 16:00 11.53 11.49 4619 12.88
06/28 17:00 11.45 11.46 4555 12.78
06/28 18:00 11.39 11.41 4507 12.90
06/28 19:00 11.29 11.30 4428 12.86
06/28 20:00 11.19 11.20 4350 12.64
06/28 21:00 11.12 11.09 4295 12.59
06/28 22:00 11.02 11.01 4217 12.57
06/28 23:00 10.91 10.89 4132 12.55
Data processed at Mon 29Jun2026 04:52 GMT

NOTICE: If you are parsing this page

Please convert to using our Data API. Starting early 2026 we will be migrating to: https://water.usace.army.mil with modern pages rendered in JavaScript. When this migration completes you will no longer be able to scrape this page! CWMSDataAPI (CDA)

Timeseries IDs (TSIDs)

TSIDs used from left to right in the data table
MKSL.Stage.Inst.1Hour.0.Ccp-Rev
MKSL.Stage-Alt.Inst.1Hour.0.Ccp-Rev
MKSL.Flow.Inst.1Hour.0.Ccp-Rev
MKSL.Volt-Battery Load.Inst.1Hour.0.Ccp-Rev

                            

All information presented herein is the property of the government of the United States of America and may be revised or deleted at any time without prior notice. Dissemination of this information without the expressed written consent of the Public Affairs Office, Tulsa District U.S. Army Corps of Engineers is strictly prohibited. These data are gathered electronically and, as presented, have NOT undergone any form of quality control. These data are NOT guaranteed to be valid or correct.